Saint Mary, Nebraska
Current Conditions -  °F | °C
As of 1:55 PM on Thursday 18 Dec 2014 (Local Time) from KBIE Reporting Station
Overcast Overcast  
Wind Chill: 31°   Ceiling: 1200
Heat Index: 31°   Visibility: 10mi
Dew Point: 27°   Wind: 0mph
Humidity: 86%   Direction: NA
Pressure: 30.18"   Gusts: NA
Location:  40.4616°N, 96.3476°W
Report Text: KBIE 181955Z AUTO 00000KT 10SM OVC012 00/M03 A3018 RMK AO2 P0001 T10051026
Loading
Personal Weather Stations






























Interactive Weather Map New forecast layout! Learn more

10-Day Weather Forecast

Advertisements
Track Severe Weather on mobile